createdAt,value
2019-02-08T00:01:37.123Z,6.42
2019-02-08T00:04:08.706Z,6.40
2019-02-08T00:06:39.027Z,6.44
2019-02-08T00:09:10.565Z,6.42
2019-02-08T00:11:40.967Z,6.44
2019-02-08T00:14:11.783Z,6.45
2019-02-08T00:16:42.049Z,6.49
2019-02-08T00:19:12.402Z,6.45
2019-02-08T00:21:42.789Z,6.52
2019-02-08T00:24:13.144Z,6.59
2019-02-08T00:26:43.595Z,6.60
2019-02-08T00:29:14.204Z,6.59
2019-02-08T00:31:44.490Z,6.63
2019-02-08T00:34:15.437Z,6.60
2019-02-08T00:36:45.738Z,6.63
2019-02-08T00:39:16.439Z,6.60
2019-02-08T00:41:46.988Z,6.52
2019-02-08T00:44:17.588Z,6.55
2019-02-08T00:46:47.837Z,6.57
2019-02-08T00:49:19.991Z,6.61
2019-02-08T00:51:50.390Z,6.63
2019-02-08T00:54:20.685Z,6.67
2019-02-08T00:56:51.520Z,6.68
2019-02-08T00:59:21.798Z,6.65
2019-02-08T01:01:52.172Z,6.66
2019-02-08T01:04:22.577Z,6.68
2019-02-08T01:06:52.957Z,6.65
2019-02-08T01:09:23.250Z,6.64
2019-02-08T01:11:53.940Z,6.66
2019-02-08T01:14:24.321Z,6.65
2019-02-08T01:16:55.814Z,6.70
2019-02-08T01:19:26.190Z,6.72
2019-02-08T01:21:56.992Z,6.71
2019-02-08T01:24:27.710Z,6.73
2019-02-08T01:26:58.208Z,6.76
2019-02-08T01:29:28.465Z,6.72
2019-02-08T01:31:58.907Z,6.71
2019-02-08T01:34:29.314Z,6.73
2019-02-08T01:36:59.953Z,6.70
2019-02-08T01:39:30.594Z,6.64
2019-02-08T01:42:01.617Z,6.57
2019-02-08T01:44:32.205Z,6.57
2019-02-08T01:47:02.527Z,6.59
2019-02-08T01:49:33.015Z,6.57
2019-02-08T01:52:03.383Z,6.59
2019-02-08T01:54:33.858Z,6.56
2019-02-08T01:57:04.625Z,6.61
2019-02-08T01:59:35.641Z,6.65
2019-02-08T02:02:06.081Z,6.66
2019-02-08T02:04:36.699Z,6.65
2019-02-08T02:07:07.206Z,6.67
2019-02-08T02:09:37.738Z,6.69
2019-02-08T02:12:08.082Z,6.68
2019-02-08T02:14:38.426Z,6.68
2019-02-08T02:17:09.356Z,6.68
2019-02-08T02:19:41.756Z,6.71
2019-02-08T02:22:13.153Z,6.66
2019-02-08T02:24:43.711Z,6.69
2019-02-08T02:27:14.282Z,6.70
2019-02-08T02:29:44.603Z,6.72
2019-02-08T02:32:15.234Z,6.71
2019-02-08T02:34:45.621Z,6.73
2019-02-08T02:37:15.885Z,6.75
2019-02-08T02:39:47.007Z,6.70
2019-02-08T02:42:17.405Z,6.76
2019-02-08T02:44:48.980Z,6.86
2019-02-08T02:47:19.796Z,6.86
2019-02-08T02:49:50.392Z,6.87
2019-02-08T02:52:21.070Z,6.91
2019-02-08T02:54:51.901Z,6.85
2019-02-08T02:57:22.166Z,6.84
2019-02-08T02:59:52.798Z,6.83
2019-02-08T03:02:23.997Z,6.79
2019-02-08T03:04:54.315Z,6.76
2019-02-08T03:07:24.665Z,6.75
2019-02-08T03:09:55.146Z,6.79
2019-02-08T03:12:25.931Z,6.81
2019-02-08T03:14:56.576Z,6.83
2019-02-08T03:17:27.324Z,6.85
2019-02-08T03:19:57.647Z,6.88
2019-02-08T03:22:28.001Z,6.81
2019-02-08T03:24:59.208Z,6.89
2019-02-08T03:27:29.736Z,6.90
2019-02-08T03:30:01.188Z,6.94
2019-02-08T03:32:32.751Z,6.98
2019-02-08T03:35:03.218Z,7.01
2019-02-08T03:37:33.620Z,7.01
2019-02-08T03:40:05.228Z,6.99
2019-02-08T03:42:35.690Z,7.01
2019-02-08T03:45:08.236Z,7.00
2019-02-08T03:47:38.770Z,7.00
2019-02-08T03:50:13.103Z,7.05
2019-02-08T03:52:43.615Z,7.03
2019-02-08T03:55:16.533Z,7.00
2019-02-08T03:57:47.134Z,7.05
2019-02-08T04:00:21.756Z,7.03
2019-02-08T04:02:52.492Z,7.08
2019-02-08T04:05:22.823Z,7.08
2019-02-08T04:07:53.232Z,7.07
2019-02-08T04:10:24.128Z,7.08
2019-02-08T04:12:55.635Z,7.06
2019-02-08T04:15:26.165Z,7.04
2019-02-08T04:17:57.406Z,7.08
2019-02-08T04:20:27.969Z,7.03
2019-02-08T04:22:58.673Z,7.05
2019-02-08T04:25:29.103Z,6.99
2019-02-08T04:27:59.446Z,7.08
2019-02-08T04:30:32.225Z,7.08
2019-02-08T04:33:04.889Z,7.12
2019-02-08T04:35:36.016Z,7.11
2019-02-08T04:38:06.942Z,7.13
2019-02-08T04:40:37.489Z,7.11
2019-02-08T04:43:07.870Z,7.11
2019-02-08T04:45:38.211Z,7.11
2019-02-08T04:48:08.475Z,7.07
2019-02-08T04:50:38.914Z,7.07
2019-02-08T04:53:09.868Z,7.10
2019-02-08T04:55:42.229Z,7.09
2019-02-08T04:58:12.728Z,7.11
2019-02-08T05:00:43.035Z,7.11
2019-02-08T05:03:13.443Z,7.13
2019-02-08T05:05:43.923Z,7.09
2019-02-08T05:08:14.535Z,7.12
2019-02-08T05:10:46.361Z,7.12
2019-02-08T05:13:18.873Z,7.05
2019-02-08T05:15:49.413Z,6.94
2019-02-08T05:18:19.863Z,7.00
2019-02-08T05:20:50.678Z,6.97
2019-02-08T05:23:21.811Z,6.90
2019-02-08T05:25:52.549Z,6.83
2019-02-08T05:28:24.949Z,6.88
2019-02-08T05:30:55.616Z,6.88
2019-02-08T05:33:25.878Z,6.90
2019-02-08T05:35:56.152Z,6.87
2019-02-08T05:38:27.093Z,6.85
2019-02-08T05:40:57.492Z,6.78
2019-02-08T05:43:28.154Z,6.73
2019-02-08T05:45:58.697Z,6.77
2019-02-08T05:48:29.085Z,6.74
2019-02-08T05:51:00.038Z,6.74
2019-02-08T05:53:31.445Z,6.76
2019-02-08T05:56:01.968Z,6.74
2019-02-08T05:58:32.856Z,6.72
2019-02-08T06:01:04.915Z,6.73
2019-02-08T06:03:35.305Z,6.76
2019-02-08T06:06:05.774Z,6.77
2019-02-08T06:08:36.575Z,6.73
2019-02-08T06:11:08.265Z,6.73
2019-02-08T06:13:38.697Z,6.72
2019-02-08T06:16:09.476Z,6.75
2019-02-08T06:18:40.253Z,6.75
2019-02-08T06:21:11.746Z,6.78
2019-02-08T06:23:42.276Z,6.78
2019-02-08T06:26:12.805Z,6.77
2019-02-08T06:28:43.052Z,6.68
2019-02-08T06:31:15.457Z,6.75
2019-02-08T06:33:46.258Z,6.67
2019-02-08T06:36:16.786Z,6.70
2019-02-08T06:38:47.192Z,6.68
2019-02-08T06:41:17.506Z,6.69
2019-02-08T06:43:48.024Z,6.74
2019-02-08T06:46:19.288Z,6.77
2019-02-08T06:48:49.605Z,6.76
2019-02-08T06:51:20.008Z,6.68
2019-02-08T06:53:51.597Z,6.64
2019-02-08T06:56:40.833Z,6.60
2019-02-08T06:59:20.618Z,6.56
2019-02-08T07:02:08.363Z,6.51
2019-02-08T07:05:12.740Z,6.50
2019-02-08T07:08:03.046Z,6.52
2019-02-08T07:10:43.241Z,6.50
2019-02-08T07:13:25.594Z,6.47
2019-02-08T07:16:09.722Z,6.49
2019-02-08T07:18:48.282Z,6.51
2019-02-08T07:21:36.295Z,6.50
2019-02-08T07:24:38.295Z,6.54
2019-02-08T07:27:31.100Z,6.59
2019-02-08T07:30:10.179Z,6.61
2019-02-08T07:32:49.376Z,6.62
2019-02-08T07:35:43.737Z,6.71
2019-02-08T07:38:22.556Z,6.70
2019-02-08T07:41:13.227Z,6.79
2019-02-08T07:44:04.577Z,6.86
2019-02-08T07:46:40.767Z,6.94
2019-02-08T07:49:33.658Z,6.95
2019-02-08T07:52:17.331Z,6.93
2019-02-08T07:55:15.456Z,6.92
2019-02-08T07:57:58.429Z,6.92
2019-02-08T08:00:53.613Z,6.92
2019-02-08T08:04:01.373Z,6.94
2019-02-08T08:06:36.120Z,6.91
2019-02-08T08:09:38.013Z,6.97
2019-02-08T08:12:30.819Z,6.95
2019-02-08T08:15:18.208Z,7.06
2019-02-08T08:17:56.587Z,7.12
2019-02-08T08:20:54.999Z,7.15
2019-02-08T08:23:43.646Z,7.16
2019-02-08T08:26:42.212Z,7.18
2019-02-08T08:29:23.734Z,7.26
2019-02-08T08:32:14.843Z,7.27
2019-02-08T08:35:07.059Z,7.32
2019-02-08T08:38:22.263Z,7.29
2019-02-08T08:41:48.987Z,7.27
2019-02-08T08:45:09.087Z,7.15
2019-02-08T08:48:27.065Z,7.05
2019-02-08T08:51:42.086Z,6.84
2019-02-08T08:54:55.476Z,6.87
2019-02-08T08:57:47.127Z,6.78
2019-02-08T09:00:59.124Z,6.76
2019-02-08T09:04:12.401Z,6.73
2019-02-08T09:07:22.201Z,6.74
2019-02-08T09:10:32.338Z,6.75
2019-02-08T09:13:17.734Z,6.72
2019-02-08T09:16:27.011Z,6.66
2019-02-08T09:19:42.772Z,6.63
2019-02-08T09:22:21.171Z,6.69
2019-02-08T09:25:49.708Z,6.79
2019-02-08T09:28:31.876Z,6.83
2019-02-08T09:31:42.790Z,6.88
2019-02-08T09:34:49.127Z,6.94
2019-02-08T09:38:04.271Z,6.99
2019-02-08T09:41:40.638Z,7.06
2019-02-08T09:44:53.010Z,7.08
2019-02-08T09:47:54.020Z,7.13
2019-02-08T09:50:58.115Z,7.18
2019-02-08T09:54:17.479Z,7.25
2019-02-08T09:57:25.713Z,7.25
2019-02-08T10:00:23.768Z,7.23
2019-02-08T10:03:36.743Z,7.25
2019-02-08T10:06:51.046Z,7.26
2019-02-08T10:10:07.414Z,7.31
2019-02-08T10:13:12.903Z,7.34
2019-02-08T10:16:39.957Z,7.32
2019-02-08T10:19:58.612Z,7.35
2019-02-08T10:22:56.202Z,7.35
2019-02-08T10:26:22.413Z,7.34
2019-02-08T10:29:37.340Z,7.33
2019-02-08T10:33:01.968Z,7.27
2019-02-08T10:36:12.646Z,7.25
2019-02-08T10:39:19.003Z,7.31
2019-02-08T10:42:32.542Z,7.36
2019-02-08T10:45:38.224Z,7.40
2019-02-08T10:48:40.472Z,7.34
2019-02-08T10:51:43.460Z,7.43
2019-02-08T10:55:06.058Z,7.53
2019-02-08T10:58:16.023Z,7.51
2019-02-08T11:01:29.399Z,7.63
2019-02-08T11:04:35.731Z,7.61
2019-02-08T11:07:43.092Z,7.51
2019-02-08T11:10:59.678Z,7.42
2019-02-08T11:14:15.673Z,7.40
2019-02-08T11:17:19.477Z,7.44
2019-02-08T11:19:56.004Z,7.36
2019-02-08T11:22:33.246Z,7.36
2019-02-08T11:24:58.596Z,7.36
2019-02-08T11:27:29.011Z,7.38
2019-02-08T11:29:59.817Z,7.45
2019-02-08T11:32:42.845Z,7.53
2019-02-08T11:35:02.309Z,7.56
2019-02-08T11:37:32.594Z,7.58
2019-02-08T11:40:03.113Z,7.57
2019-02-08T11:42:33.547Z,7.67
2019-02-08T11:45:04.796Z,7.70
2019-02-08T11:47:35.304Z,7.79
2019-02-08T11:50:07.491Z,7.85
2019-02-08T11:52:37.733Z,7.98
2019-02-08T11:55:08.848Z,8.04
2019-02-08T11:57:39.355Z,8.00
2019-02-08T12:00:15.925Z,7.95
2019-02-08T12:02:46.457Z,7.88
2019-02-08T12:05:16.909Z,7.84
2019-02-08T12:07:47.460Z,7.83
2019-02-08T12:10:18.283Z,7.78
2019-02-08T12:12:48.958Z,7.75
2019-02-08T12:15:19.550Z,7.66
2019-02-08T12:17:50.190Z,7.71
2019-02-08T12:20:21.027Z,7.76
2019-02-08T12:22:51.497Z,7.78
2019-02-08T12:25:26.043Z,7.87
2019-02-08T12:27:56.466Z,7.89
2019-02-08T12:30:29.883Z,7.83
2019-02-08T12:33:02.610Z,7.88
2019-02-08T12:35:33.147Z,7.87
2019-02-08T12:38:03.393Z,7.87
2019-02-08T12:40:33.908Z,7.85
2019-02-08T12:43:04.391Z,7.85
2019-02-08T12:45:34.920Z,7.79
2019-02-08T12:48:06.524Z,7.77
2019-02-08T12:50:36.753Z,7.74
2019-02-08T12:53:07.442Z,7.70
2019-02-08T12:55:38.777Z,7.68
2019-02-08T12:58:09.136Z,7.69
2019-02-08T13:00:39.404Z,7.71
2019-02-08T13:03:09.782Z,7.71
2019-02-08T13:05:40.030Z,7.75
2019-02-08T13:08:10.378Z,7.76
2019-02-08T13:10:40.736Z,7.79
2019-02-08T13:13:11.530Z,7.80
2019-02-08T13:15:41.812Z,7.85
2019-02-08T13:18:12.248Z,7.86
2019-02-08T13:20:45.571Z,7.88
2019-02-08T13:23:15.874Z,7.86
2019-02-08T13:25:46.297Z,7.82
2019-02-08T13:28:16.563Z,7.83
2019-02-08T13:30:46.815Z,7.83
2019-02-08T13:33:17.090Z,7.81
2019-02-08T13:35:48.447Z,7.81
2019-02-08T13:38:18.772Z,7.80
2019-02-08T13:40:49.103Z,7.80
2019-02-08T13:43:20.687Z,7.79
2019-02-08T13:45:51.176Z,7.75
2019-02-08T13:48:21.369Z,7.75
2019-02-08T13:50:52.012Z,7.76
2019-02-08T13:53:25.159Z,7.72
2019-02-08T13:55:55.388Z,7.80
2019-02-08T13:58:25.906Z,7.79
2019-02-08T14:00:56.171Z,7.80
2019-02-08T14:03:26.582Z,7.85
2019-02-08T14:05:56.896Z,7.84
2019-02-08T14:08:27.215Z,7.86
2019-02-08T14:10:57.501Z,7.88
2019-02-08T14:13:27.778Z,7.87
2019-02-08T14:15:58.439Z,7.89
2019-02-08T14:18:29.197Z,7.89
2019-02-08T14:20:59.748Z,7.87
2019-02-08T14:23:30.333Z,7.86
2019-02-08T14:26:01.684Z,7.84
2019-02-08T14:28:32.021Z,7.84
2019-02-08T14:31:02.393Z,7.84
2019-02-08T14:33:32.780Z,7.85
2019-02-08T14:36:03.030Z,7.78
2019-02-08T14:38:33.281Z,7.71
2019-02-08T14:41:03.606Z,7.72
2019-02-08T14:43:34.963Z,7.70
2019-02-08T14:46:05.503Z,7.72
2019-02-08T14:48:36.120Z,7.75
2019-02-08T14:51:07.717Z,7.78
2019-02-08T14:53:41.477Z,7.77
2019-02-08T14:56:11.967Z,7.75
2019-02-08T14:58:42.270Z,7.75
2019-02-08T15:01:13.252Z,7.78
2019-02-08T15:03:43.682Z,7.82
2019-02-08T15:06:13.913Z,7.86
2019-02-08T15:08:44.442Z,7.87
2019-02-08T15:11:15.156Z,7.86
2019-02-08T15:13:45.644Z,7.85
2019-02-08T15:16:16.221Z,7.88
2019-02-08T15:18:46.788Z,7.88
2019-02-08T15:21:17.054Z,7.91
2019-02-08T15:23:47.993Z,7.92
2019-02-08T15:26:18.457Z,7.93
2019-02-08T15:28:49.708Z,7.91
2019-02-08T15:31:20.433Z,7.96
2019-02-08T15:33:55.081Z,7.99
2019-02-08T15:36:25.410Z,8.00
2019-02-08T15:38:57.167Z,8.00
2019-02-08T15:41:27.449Z,8.01
2019-02-08T15:43:58.006Z,7.99
2019-02-08T15:46:29.317Z,7.97
2019-02-08T15:48:59.620Z,7.94
2019-02-08T15:51:29.880Z,7.94
2019-02-08T15:54:00.987Z,7.98
2019-02-08T15:56:31.592Z,7.95
2019-02-08T15:59:01.902Z,7.91
2019-02-08T16:01:32.112Z,7.86
2019-02-08T16:04:02.510Z,7.85
2019-02-08T16:06:32.769Z,7.80
2019-02-08T16:09:04.985Z,7.80
2019-02-08T16:11:41.375Z,7.79
2019-02-08T16:14:11.937Z,7.74
2019-02-08T16:16:42.444Z,7.78
2019-02-08T16:19:13.847Z,7.81
2019-02-08T16:21:45.412Z,7.79
2019-02-08T16:24:15.878Z,7.78
2019-02-08T16:26:46.290Z,7.75
2019-02-08T16:29:16.875Z,7.75
2019-02-08T16:31:47.735Z,7.76
2019-02-08T16:34:18.020Z,7.75
2019-02-08T16:36:48.588Z,7.73
2019-02-08T16:39:18.868Z,7.72
2019-02-08T16:41:52.770Z,7.73
2019-02-08T16:44:23.116Z,7.73
2019-02-08T16:46:53.531Z,7.72
2019-02-08T16:49:23.834Z,7.69
2019-02-08T16:51:58.328Z,7.68
2019-02-08T16:54:29.080Z,7.67
2019-02-08T16:56:59.531Z,7.64
2019-02-08T16:59:29.921Z,7.59
2019-02-08T17:02:01.770Z,7.59
2019-02-08T17:04:32.065Z,7.55
2019-02-08T17:07:04.700Z,7.51
2019-02-08T17:09:36.343Z,7.49
2019-02-08T17:12:06.766Z,7.49
2019-02-08T17:14:37.435Z,7.49
2019-02-08T17:17:07.933Z,7.49
2019-02-08T17:19:38.289Z,7.47
2019-02-08T17:22:11.522Z,7.50
2019-02-08T17:24:42.089Z,7.49
2019-02-08T17:27:12.699Z,7.48
2019-02-08T17:29:43.738Z,7.48
2019-02-08T17:32:14.585Z,7.48
2019-02-08T17:34:45.313Z,7.45
2019-02-08T17:37:16.034Z,7.47
2019-02-08T17:39:46.366Z,7.46
2019-02-08T17:42:17.092Z,7.46
2019-02-08T17:44:47.534Z,7.43
2019-02-08T17:47:17.877Z,7.40
2019-02-08T17:49:48.201Z,7.40
2019-02-08T17:52:18.529Z,7.44
2019-02-08T17:54:49.372Z,7.47
2019-02-08T17:57:20.306Z,7.43
2019-02-08T17:59:53.499Z,7.47
2019-02-08T18:02:24.331Z,7.49
2019-02-08T18:04:54.637Z,7.52
2019-02-08T18:07:25.001Z,7.55
2019-02-08T18:09:55.405Z,7.56
2019-02-08T18:12:32.307Z,7.58
2019-02-08T18:14:57.772Z,7.64
2019-02-08T18:17:28.248Z,7.64
2019-02-08T18:19:58.963Z,7.68
2019-02-08T18:22:29.229Z,7.73
2019-02-08T18:25:01.207Z,7.75
2019-02-08T18:27:32.036Z,7.79
2019-02-08T18:30:02.500Z,7.85
2019-02-08T18:32:32.883Z,7.86
2019-02-08T18:35:05.287Z,7.83
2019-02-08T18:37:35.763Z,7.85
2019-02-08T18:40:07.280Z,7.88
2019-02-08T18:42:41.471Z,7.91
2019-02-08T18:45:20.239Z,7.96
2019-02-08T18:47:54.419Z,8.02
2019-02-08T18:50:39.462Z,8.03
2019-02-08T18:53:21.438Z,8.02
2019-02-08T18:55:53.578Z,8.05
2019-02-08T18:58:24.010Z,8.07
2019-02-08T19:00:55.126Z,8.11
2019-02-08T19:03:26.757Z,8.11
2019-02-08T19:05:57.362Z,8.13
2019-02-08T19:08:28.482Z,8.17
2019-02-08T19:11:00.134Z,8.19
2019-02-08T19:13:30.873Z,8.20
2019-02-08T19:16:01.426Z,8.23
2019-02-08T19:18:32.310Z,8.24
2019-02-08T19:21:02.585Z,8.25
2019-02-08T19:23:33.269Z,8.28
2019-02-08T19:26:03.841Z,8.33
2019-02-08T19:28:34.417Z,8.33
2019-02-08T19:31:05.363Z,8.36
2019-02-08T19:33:37.119Z,8.36
2019-02-08T19:36:09.376Z,8.30
2019-02-08T19:38:40.581Z,8.29
2019-02-08T19:41:13.255Z,8.29
2019-02-08T19:43:45.444Z,8.30
2019-02-08T19:46:16.106Z,8.33
2019-02-08T19:48:46.624Z,8.39
2019-02-08T19:51:17.259Z,8.40
2019-02-08T19:53:48.111Z,8.42
2019-02-08T19:56:18.770Z,8.44
2019-02-08T19:58:49.381Z,8.49
2019-02-08T20:01:52.510Z,8.53
2019-02-08T20:04:21.072Z,8.57
2019-02-08T20:06:52.251Z,8.57
2019-02-08T20:09:23.220Z,8.58
2019-02-08T20:11:55.019Z,8.58
2019-02-08T20:14:31.171Z,8.55
2019-02-08T20:17:01.518Z,8.54
2019-02-08T20:19:31.847Z,8.53
2019-02-08T20:22:02.481Z,8.52
2019-02-08T20:24:32.808Z,8.54
2019-02-08T20:27:03.991Z,8.57
2019-02-08T20:29:34.475Z,8.57
2019-02-08T20:32:05.049Z,8.57
2019-02-08T20:34:36.296Z,8.59
2019-02-08T20:37:07.285Z,8.59
2019-02-08T20:39:37.918Z,8.63
2019-02-08T20:42:08.601Z,8.66
2019-02-08T20:44:39.359Z,8.64
2019-02-08T20:47:10.154Z,8.65
2019-02-08T20:49:41.145Z,8.67
2019-02-08T20:52:12.046Z,8.69
2019-02-08T20:54:42.584Z,8.73
2019-02-08T20:57:14.775Z,8.70
2019-02-08T20:59:45.350Z,8.71
2019-02-08T21:02:16.070Z,8.72
2019-02-08T21:04:46.792Z,8.74
2019-02-08T21:07:17.230Z,8.69
2019-02-08T21:09:48.887Z,8.72
2019-02-08T21:12:19.324Z,8.74
2019-02-08T21:14:50.036Z,8.74
2019-02-08T21:17:20.766Z,8.74
2019-02-08T21:19:51.555Z,8.72
2019-02-08T21:22:22.059Z,8.71
2019-02-08T21:24:52.504Z,8.75
2019-02-08T21:27:23.184Z,8.77
2019-02-08T21:29:54.051Z,8.79
2019-02-08T21:32:24.503Z,8.79
2019-02-08T21:34:54.896Z,8.78
2019-02-08T21:37:26.760Z,8.81
2019-02-08T21:39:57.655Z,8.79
2019-02-08T21:42:29.077Z,8.79
2019-02-08T21:45:00.993Z,8.77
2019-02-08T21:47:31.278Z,8.77
2019-02-08T21:50:02.638Z,8.77
2019-02-08T21:52:34.631Z,8.80
2019-02-08T21:55:05.345Z,8.80
2019-02-08T21:57:36.075Z,8.80
2019-02-08T22:00:19.868Z,8.81
2019-02-08T22:02:51.881Z,8.79
2019-02-08T22:05:27.843Z,8.76
2019-02-08T22:07:58.420Z,8.81
2019-02-08T22:10:31.876Z,8.79
2019-02-08T22:13:02.513Z,8.78
2019-02-08T22:15:35.743Z,8.78
2019-02-08T22:18:08.514Z,8.81
2019-02-08T22:20:39.643Z,8.85
2019-02-08T22:23:10.378Z,8.81
2019-02-08T22:25:41.200Z,8.81
2019-02-08T22:28:11.634Z,8.86
2019-02-08T22:30:42.220Z,8.87
2019-02-08T22:33:13.015Z,8.84
2019-02-08T22:35:43.734Z,8.84
2019-02-08T22:38:14.885Z,8.84
2019-02-08T22:40:45.908Z,8.85
2019-02-08T22:43:16.818Z,8.82
2019-02-08T22:45:47.569Z,8.81
2019-02-08T22:48:18.730Z,8.81
2019-02-08T22:50:50.398Z,8.76
2019-02-08T22:53:20.978Z,8.73
2019-02-08T22:55:51.642Z,8.64
2019-02-08T22:58:22.246Z,8.58
2019-02-08T23:01:26.291Z,8.58
2019-02-08T23:04:01.031Z,8.50
2019-02-08T23:06:31.566Z,8.39
2019-02-08T23:09:02.101Z,8.34
2019-02-08T23:11:35.297Z,8.31
2019-02-08T23:14:06.105Z,8.31
2019-02-08T23:16:36.505Z,8.28
2019-02-08T23:19:07.879Z,8.27
2019-02-08T23:21:38.610Z,8.25
2019-02-08T23:24:08.964Z,8.23
2019-02-08T23:26:39.273Z,8.18
2019-02-08T23:29:09.605Z,8.12
2019-02-08T23:31:40.619Z,8.10
2019-02-08T23:34:11.148Z,8.09
2019-02-08T23:36:43.320Z,8.05
2019-02-08T23:39:14.068Z,8.03
2019-02-08T23:41:44.470Z,7.99
2019-02-08T23:44:15.039Z,7.93
2019-02-08T23:46:45.442Z,7.93
2019-02-08T23:49:16.249Z,7.89
2019-02-08T23:51:46.594Z,7.86
2019-02-08T23:54:17.008Z,7.82
2019-02-08T23:56:47.308Z,7.80
2019-02-08T23:59:19.218Z,7.74
